createdAt,value
2023-05-09T00:01:33.721Z,5.07
2023-05-09T00:04:03.083Z,4.20
2023-05-09T00:06:32.377Z,5.53
2023-05-09T00:09:02.824Z,5.55
2023-05-09T00:11:32.188Z,4.60
2023-05-09T00:14:01.262Z,4.28
2023-05-09T00:16:35.934Z,5.57
2023-05-09T00:19:05.426Z,4.35
2023-05-09T00:21:34.704Z,4.68
2023-05-09T00:24:05.469Z,6.05
2023-05-09T00:26:34.464Z,4.68
2023-05-09T00:29:03.455Z,5.13
2023-05-09T00:31:32.635Z,4.68
2023-05-09T00:34:01.770Z,5.05
2023-05-09T00:36:30.828Z,4.32
2023-05-09T00:38:59.930Z,4.85
2023-05-09T00:41:30.522Z,4.50
2023-05-09T00:43:59.612Z,4.05
2023-05-09T00:46:29.186Z,4.25
2023-05-09T00:48:58.654Z,4.57
2023-05-09T00:51:29.354Z,3.80
2023-05-09T00:53:58.511Z,4.68
2023-05-09T00:56:29.271Z,5.70
2023-05-09T00:58:58.501Z,3.38
2023-05-09T01:01:27.703Z,4.55
2023-05-09T01:03:57.043Z,4.15
2023-05-09T01:06:39.805Z,4.40
2023-05-09T01:09:18.270Z,3.97
2023-05-09T01:11:56.764Z,3.47
2023-05-09T01:14:39.081Z,4.07
2023-05-09T01:17:17.545Z,4.35
2023-05-09T01:20:11.258Z,4.68
2023-05-09T01:22:44.790Z,3.90
2023-05-09T01:25:45.822Z,4.78
2023-05-09T01:28:35.629Z,4.30
2023-05-09T01:31:11.094Z,3.67
2023-05-09T01:33:43.857Z,4.45
2023-05-09T01:36:17.441Z,4.88
2023-05-09T01:38:48.144Z,4.00
2023-05-09T01:41:19.283Z,4.68
2023-05-09T01:43:50.034Z,3.15
2023-05-09T01:46:23.092Z,3.22
2023-05-09T01:48:54.148Z,4.57
2023-05-09T01:51:23.968Z,3.97
2023-05-09T01:53:55.524Z,3.65
2023-05-09T01:56:25.838Z,3.90
2023-05-09T01:58:57.001Z,3.58
2023-05-09T02:01:28.170Z,2.88
2023-05-09T02:03:58.614Z,4.28
2023-05-09T02:06:29.965Z,3.55
2023-05-09T02:09:00.595Z,4.15
2023-05-09T02:11:29.665Z,3.50
2023-05-09T02:13:58.938Z,3.03
2023-05-09T02:16:30.217Z,4.13
2023-05-09T02:18:59.251Z,3.50
2023-05-09T02:21:29.282Z,2.88
2023-05-09T02:23:58.500Z,2.75
2023-05-09T02:26:29.653Z,3.10
2023-05-09T02:28:59.559Z,4.75
2023-05-09T02:31:31.862Z,3.13
2023-05-09T02:34:03.249Z,3.38
2023-05-09T02:36:33.243Z,3.95
2023-05-09T02:39:03.407Z,3.55
2023-05-09T02:41:32.534Z,2.83
2023-05-09T02:44:01.495Z,3.90
2023-05-09T02:46:35.072Z,3.72
2023-05-09T02:49:05.321Z,3.75
2023-05-09T02:51:34.470Z,3.13
2023-05-09T02:54:03.525Z,3.45
2023-05-09T02:56:32.614Z,3.50
2023-05-09T02:59:01.592Z,3.70
2023-05-09T03:01:32.177Z,2.85
2023-05-09T03:04:01.139Z,3.50
2023-05-09T03:06:31.011Z,3.33
2023-05-09T03:09:00.049Z,3.33
2023-05-09T03:11:30.882Z,3.28
2023-05-09T03:14:00.267Z,3.10
2023-05-09T03:16:33.081Z,3.70
2023-05-09T03:19:02.543Z,3.50
2023-05-09T03:21:33.102Z,3.15
2023-05-09T03:24:02.298Z,3.30
2023-05-09T03:26:35.961Z,3.70
2023-05-09T03:29:05.833Z,4.45
2023-05-09T03:31:36.498Z,3.70
2023-05-09T03:34:05.607Z,2.70
2023-05-09T03:36:34.639Z,4.18
2023-05-09T03:39:04.660Z,4.30
2023-05-09T03:41:36.120Z,3.22
2023-05-09T03:44:06.338Z,4.25
2023-05-09T03:46:36.873Z,3.38
2023-05-09T03:49:05.976Z,4.28
2023-05-09T03:51:36.790Z,3.28
2023-05-09T03:54:09.890Z,3.40
2023-05-09T03:56:38.996Z,3.17
2023-05-09T03:59:07.976Z,3.23
2023-05-09T04:01:40.294Z,3.43
2023-05-09T04:04:10.639Z,3.90
2023-05-09T04:06:40.213Z,3.03
2023-05-09T04:09:12.065Z,4.10
2023-05-09T04:11:43.719Z,3.40
2023-05-09T04:14:14.998Z,4.10
2023-05-09T04:16:45.875Z,3.13
2023-05-09T04:19:15.140Z,4.70
2023-05-09T04:21:44.296Z,3.40
2023-05-09T04:24:13.347Z,5.07
2023-05-09T04:26:48.933Z,3.97
2023-05-09T04:29:26.435Z,4.47
2023-05-09T04:32:01.162Z,4.20
2023-05-09T04:34:31.830Z,4.10
2023-05-09T04:37:06.486Z,4.60
2023-05-09T04:39:35.700Z,4.70
2023-05-09T04:42:13.704Z,4.20
2023-05-09T04:44:43.172Z,4.47
2023-05-09T04:47:13.669Z,4.47
2023-05-09T04:49:42.724Z,4.03
2023-05-09T04:52:11.917Z,4.10
2023-05-09T04:54:41.218Z,3.90
2023-05-09T04:57:17.886Z,4.23
2023-05-09T04:59:53.035Z,3.60
2023-05-09T05:02:25.230Z,3.60
2023-05-09T05:05:06.243Z,4.60
2023-05-09T05:07:41.794Z,4.10
2023-05-09T05:10:13.561Z,3.70
2023-05-09T05:12:46.174Z,4.00
2023-05-09T05:15:16.496Z,4.90
2023-05-09T05:17:50.032Z,4.00
2023-05-09T05:20:23.083Z,4.07
2023-05-09T05:22:54.583Z,4.13
2023-05-09T05:25:24.434Z,5.23
2023-05-09T05:27:54.896Z,4.20
2023-05-09T05:30:24.014Z,4.57
2023-05-09T05:32:54.794Z,3.90
2023-05-09T05:35:24.759Z,4.50
2023-05-09T05:37:55.276Z,3.90
2023-05-09T05:40:25.148Z,4.20
2023-05-09T05:42:55.621Z,4.10
2023-05-09T05:45:26.020Z,4.13
2023-05-09T05:47:58.782Z,4.10
2023-05-09T05:50:28.017Z,3.57
2023-05-09T05:52:57.298Z,4.57
2023-05-09T05:55:26.319Z,3.60
2023-05-09T05:57:55.599Z,3.57
2023-05-09T06:00:24.820Z,3.80
2023-05-09T06:03:02.579Z,4.07
2023-05-09T06:05:44.790Z,3.40
2023-05-09T06:08:14.478Z,3.40
2023-05-09T06:10:43.575Z,3.93
2023-05-09T06:13:13.384Z,3.43
2023-05-09T06:15:46.439Z,3.13
2023-05-09T06:18:16.858Z,3.83
2023-05-09T06:20:45.820Z,3.73
2023-05-09T06:23:14.867Z,3.80
2023-05-09T06:25:44.007Z,3.03
2023-05-09T06:28:13.045Z,3.50
2023-05-09T06:30:42.124Z,3.70
2023-05-09T06:33:11.015Z,4.27
2023-05-09T06:35:41.423Z,3.50
2023-05-09T06:38:10.773Z,3.73
2023-05-09T06:40:39.733Z,3.57
2023-05-09T06:43:08.911Z,3.80
2023-05-09T06:45:38.164Z,3.30
2023-05-09T06:48:07.920Z,4.13
2023-05-09T06:50:36.980Z,4.10
2023-05-09T06:53:07.437Z,3.80
2023-05-09T06:55:36.495Z,3.70
2023-05-09T06:58:05.453Z,4.70
2023-05-09T07:00:34.424Z,4.83
2023-05-09T07:03:03.547Z,4.53
2023-05-09T07:05:32.467Z,3.90
2023-05-09T07:08:01.631Z,3.73
2023-05-09T07:10:32.565Z,3.70
2023-05-09T07:13:01.615Z,4.17
2023-05-09T07:15:41.169Z,4.03
2023-05-09T07:18:11.007Z,4.27
2023-05-09T07:20:40.178Z,4.13
2023-05-09T07:23:09.181Z,3.80
2023-05-09T07:25:39.571Z,3.40
2023-05-09T07:28:08.603Z,4.27
2023-05-09T07:30:37.541Z,4.47
2023-05-09T07:33:06.866Z,3.60
2023-05-09T07:35:35.963Z,3.50
2023-05-09T07:38:06.394Z,3.80
2023-05-09T07:40:36.598Z,4.40
2023-05-09T07:43:06.893Z,3.80
2023-05-09T07:45:36.516Z,3.47
2023-05-09T07:48:06.190Z,3.53
2023-05-09T07:50:35.712Z,3.37
2023-05-09T07:53:04.619Z,3.50
2023-05-09T07:55:33.743Z,3.77
2023-05-09T07:58:02.763Z,4.23
2023-05-09T08:00:33.074Z,2.97
2023-05-09T08:03:02.129Z,4.27
2023-05-09T08:05:31.508Z,4.17
2023-05-09T08:08:00.454Z,3.67
2023-05-09T08:10:30.763Z,3.20
2023-05-09T08:12:59.752Z,3.20
2023-05-09T08:15:28.913Z,2.73
2023-05-09T08:17:59.356Z,3.70
2023-05-09T08:20:28.655Z,2.83
2023-05-09T08:22:57.971Z,4.57
2023-05-09T08:25:27.080Z,4.50
2023-05-09T08:28:01.807Z,3.20
2023-05-09T08:30:31.264Z,3.57
2023-05-09T08:33:01.710Z,3.20
2023-05-09T08:35:30.865Z,4.20
2023-05-09T08:38:00.025Z,3.33
2023-05-09T08:40:29.124Z,3.80
2023-05-09T08:42:58.774Z,3.60
2023-05-09T08:45:30.417Z,3.90
2023-05-09T08:48:00.995Z,3.90
2023-05-09T08:50:30.885Z,4.07
2023-05-09T08:53:00.481Z,4.00
2023-05-09T08:55:32.755Z,3.87
2023-05-09T08:58:15.636Z,3.50
2023-05-09T09:01:18.697Z,4.10
2023-05-09T09:04:23.440Z,3.47
2023-05-09T09:07:01.768Z,4.70
2023-05-09T09:09:42.541Z,4.00
2023-05-09T09:12:12.545Z,3.17
2023-05-09T09:14:47.652Z,3.80
2023-05-09T09:17:20.739Z,4.53
2023-05-09T09:19:55.682Z,4.20
2023-05-09T09:22:25.232Z,3.50
2023-05-09T09:24:54.151Z,4.00
2023-05-09T09:27:23.224Z,4.27
2023-05-09T09:29:52.155Z,4.10
2023-05-09T09:32:23.005Z,4.00
2023-05-09T09:35:07.009Z,3.97
2023-05-09T09:37:36.794Z,4.17
2023-05-09T09:40:09.858Z,4.07
2023-05-09T09:42:46.391Z,3.80
2023-05-09T09:45:17.005Z,3.00
2023-05-09T09:47:48.725Z,3.97
2023-05-09T09:50:23.437Z,3.03
2023-05-09T09:52:53.657Z,3.73
2023-05-09T09:55:24.181Z,3.90
2023-05-09T09:57:54.040Z,4.13
2023-05-09T10:00:30.252Z,3.80
2023-05-09T10:03:00.622Z,3.77
2023-05-09T10:05:34.450Z,3.50
2023-05-09T10:08:07.630Z,3.43
2023-05-09T10:10:38.542Z,3.67
2023-05-09T10:13:12.190Z,3.03
2023-05-09T10:15:53.059Z,3.20
2023-05-09T10:18:30.206Z,3.13
2023-05-09T10:21:03.911Z,4.40
2023-05-09T10:23:35.616Z,3.00
2023-05-09T10:26:13.355Z,3.20
2023-05-09T10:28:46.449Z,3.03
2023-05-09T10:31:23.183Z,4.43
2023-05-09T10:33:53.027Z,2.93
2023-05-09T10:36:25.132Z,3.37
2023-05-09T10:38:56.631Z,4.20
2023-05-09T10:41:25.832Z,4.40
2023-05-09T10:43:56.902Z,3.10
2023-05-09T10:46:27.564Z,4.20
2023-05-09T10:48:58.855Z,3.20
2023-05-09T10:51:30.001Z,2.70
2023-05-09T10:53:59.112Z,2.93
2023-05-09T10:56:31.887Z,3.10
2023-05-09T10:59:01.496Z,2.87
2023-05-09T11:01:32.975Z,3.57
2023-05-09T11:04:02.653Z,4.27
2023-05-09T11:06:54.560Z,2.87
2023-05-09T11:09:38.379Z,3.87
2023-05-09T11:12:12.658Z,3.60
2023-05-09T11:14:44.675Z,3.53
2023-05-09T11:17:15.696Z,3.10
2023-05-09T11:20:05.651Z,4.07
2023-05-09T11:22:43.519Z,3.00
2023-05-09T11:25:15.158Z,3.30
2023-05-09T11:27:46.382Z,3.80
2023-05-09T11:30:18.095Z,3.77
2023-05-09T11:32:48.770Z,4.10
2023-05-09T11:35:20.329Z,4.10
2023-05-09T11:37:54.863Z,4.43
2023-05-09T11:40:24.411Z,3.03
2023-05-09T11:42:58.005Z,3.07
2023-05-09T11:45:30.582Z,3.13
2023-05-09T11:48:00.659Z,3.00
2023-05-09T11:50:29.759Z,3.10
2023-05-09T11:53:00.231Z,3.50
2023-05-09T11:55:30.564Z,3.30
2023-05-09T11:58:02.299Z,3.23
2023-05-09T12:00:31.965Z,3.50
2023-05-09T12:03:01.392Z,3.57
2023-05-09T12:05:30.827Z,3.30
2023-05-09T12:08:05.862Z,3.00
2023-05-09T12:10:37.824Z,6.10
2023-05-09T12:13:06.857Z,4.13
2023-05-09T12:15:38.980Z,3.13
2023-05-09T12:18:09.768Z,3.23
2023-05-09T12:20:43.678Z,3.20
2023-05-09T12:23:15.473Z,4.33
2023-05-09T12:25:49.971Z,3.10
2023-05-09T12:28:21.065Z,3.70
2023-05-09T12:30:50.791Z,3.03
2023-05-09T12:33:21.402Z,3.10
2023-05-09T12:36:03.459Z,3.73
2023-05-09T12:38:34.686Z,3.40
2023-05-09T12:41:04.640Z,3.40
2023-05-09T12:43:34.737Z,3.80
2023-05-09T12:46:05.394Z,3.27
2023-05-09T12:48:38.808Z,3.67
2023-05-09T12:51:08.498Z,3.30
2023-05-09T12:53:41.942Z,3.17
2023-05-09T12:56:15.741Z,3.60
2023-05-09T12:58:51.365Z,2.93
2023-05-09T13:01:20.648Z,3.73
2023-05-09T13:03:53.857Z,3.50
2023-05-09T13:06:24.216Z,3.60
2023-05-09T13:09:02.519Z,3.60
2023-05-09T13:11:31.987Z,3.90
2023-05-09T13:14:02.383Z,3.77
2023-05-09T13:16:31.414Z,3.10
2023-05-09T13:19:01.705Z,3.03
2023-05-09T13:21:30.999Z,3.93
2023-05-09T13:24:01.363Z,2.63
2023-05-09T13:26:30.641Z,4.10
2023-05-09T13:28:59.783Z,3.33
2023-05-09T13:31:28.877Z,3.50
2023-05-09T13:33:57.904Z,3.17
2023-05-09T13:36:27.074Z,3.50
2023-05-09T13:38:56.322Z,3.90
2023-05-09T13:41:27.233Z,3.27
2023-05-09T13:43:56.177Z,3.27
2023-05-09T13:46:25.097Z,3.07
2023-05-09T13:48:55.482Z,4.17
2023-05-09T13:51:24.568Z,3.80
2023-05-09T13:53:53.564Z,3.27
2023-05-09T13:56:23.702Z,3.23
2023-05-09T13:58:54.182Z,3.27
2023-05-09T14:01:23.523Z,3.83
2023-05-09T14:03:52.700Z,3.13
2023-05-09T14:06:22.299Z,2.73
2023-05-09T14:08:51.424Z,3.20
2023-05-09T14:11:20.370Z,3.70
2023-05-09T14:13:49.647Z,4.53
2023-05-09T14:16:19.992Z,3.27
2023-05-09T14:18:49.142Z,3.93
2023-05-09T14:21:18.090Z,4.13
2023-05-09T14:23:47.069Z,3.50
2023-05-09T14:26:16.121Z,3.30
2023-05-09T14:28:46.055Z,3.40
2023-05-09T14:31:15.179Z,3.23
2023-05-09T14:33:45.538Z,3.20
2023-05-09T14:36:14.501Z,3.63
2023-05-09T14:38:47.287Z,3.80
2023-05-09T14:41:16.493Z,3.17
2023-05-09T14:43:45.490Z,3.30
2023-05-09T14:46:14.478Z,3.80
2023-05-09T14:48:44.885Z,3.20
2023-05-09T14:51:14.360Z,3.20
2023-05-09T14:53:43.779Z,3.87
2023-05-09T14:56:13.198Z,3.33
2023-05-09T14:58:42.344Z,3.37
2023-05-09T15:01:11.486Z,4.17
2023-05-09T15:03:40.847Z,4.10
2023-05-09T15:06:12.072Z,3.13
2023-05-09T15:08:42.152Z,3.50
2023-05-09T15:11:11.347Z,3.30
2023-05-09T15:13:40.552Z,3.57
2023-05-09T15:16:10.107Z,3.53
2023-05-09T15:18:43.887Z,3.70
2023-05-09T15:21:14.473Z,3.87
2023-05-09T15:23:44.007Z,3.10
2023-05-09T15:26:13.416Z,3.60
2023-05-09T15:28:44.428Z,3.53
2023-05-09T15:31:14.438Z,3.00
2023-05-09T15:33:43.484Z,3.23
2023-05-09T15:36:13.868Z,4.83
2023-05-09T15:38:42.887Z,3.77
2023-05-09T15:41:12.160Z,3.60
2023-05-09T15:43:41.363Z,3.30
2023-05-09T15:46:10.678Z,3.87
2023-05-09T15:48:40.112Z,3.20
2023-05-09T15:51:09.852Z,3.00
2023-05-09T15:53:40.173Z,3.10
2023-05-09T15:56:10.047Z,4.00
2023-05-09T15:58:39.110Z,4.60
2023-05-09T16:01:08.324Z,4.27
2023-05-09T16:03:37.520Z,3.90
2023-05-09T16:06:07.030Z,3.17
2023-05-09T16:08:35.922Z,4.00
2023-05-09T16:11:06.707Z,3.40
2023-05-09T16:13:36.296Z,3.80
2023-05-09T16:16:06.210Z,3.80
2023-05-09T16:18:35.194Z,4.60
2023-05-09T16:21:04.289Z,3.00
2023-05-09T16:23:33.780Z,3.20
2023-05-09T16:26:02.716Z,3.90
2023-05-09T16:28:33.247Z,4.33
2023-05-09T16:31:04.942Z,3.70
2023-05-09T16:33:34.398Z,3.57
2023-05-09T16:36:03.524Z,3.57
2023-05-09T16:38:44.520Z,3.80
2023-05-09T16:41:13.320Z,3.77
2023-05-09T16:43:43.956Z,3.07
2023-05-09T16:46:12.820Z,3.87
2023-05-09T16:48:41.889Z,3.63
2023-05-09T16:51:11.286Z,3.90
2023-05-09T16:53:40.256Z,4.10
2023-05-09T16:56:11.098Z,4.57
2023-05-09T16:58:40.103Z,3.63
2023-05-09T17:01:10.929Z,3.40
2023-05-09T17:03:40.039Z,3.57
2023-05-09T17:06:09.345Z,3.57
2023-05-09T17:08:38.363Z,3.30
2023-05-09T17:11:07.345Z,3.57
2023-05-09T17:13:36.442Z,4.90
2023-05-09T17:16:05.707Z,3.50
2023-05-09T17:18:38.060Z,3.90
2023-05-09T17:21:07.835Z,3.77
2023-05-09T17:23:36.761Z,4.10
2023-05-09T17:26:05.744Z,3.80
2023-05-09T17:28:34.649Z,5.23
2023-05-09T17:31:03.627Z,4.33
2023-05-09T17:33:32.603Z,4.27
2023-05-09T17:36:02.951Z,3.17
2023-05-09T17:38:31.843Z,3.83
2023-05-09T17:41:00.970Z,4.27
2023-05-09T17:43:30.933Z,3.73
2023-05-09T17:45:59.975Z,4.30
2023-05-09T17:48:31.918Z,3.17
2023-05-09T17:51:02.153Z,3.60
2023-05-09T17:53:31.355Z,4.27
2023-05-09T17:56:00.474Z,3.10
2023-05-09T17:58:31.416Z,5.20
2023-05-09T18:01:15.799Z,4.17
2023-05-09T18:03:46.657Z,4.53
2023-05-09T18:06:17.851Z,3.67
2023-05-09T18:08:47.280Z,3.47
2023-05-09T18:11:16.442Z,4.87
2023-05-09T18:13:45.584Z,4.90
2023-05-09T18:16:14.550Z,4.07
2023-05-09T18:18:44.872Z,3.77
2023-05-09T18:21:14.283Z,3.80
2023-05-09T18:23:44.667Z,4.00
2023-05-09T18:26:13.813Z,3.37
2023-05-09T18:28:42.762Z,3.37
2023-05-09T18:31:13.267Z,3.87
2023-05-09T18:33:43.942Z,4.00
2023-05-09T18:36:15.160Z,4.07
2023-05-09T18:38:47.871Z,3.47
2023-05-09T18:41:18.364Z,3.80
2023-05-09T18:43:47.459Z,4.30
2023-05-09T18:46:17.625Z,4.20
2023-05-09T18:48:47.337Z,4.00
2023-05-09T18:51:16.328Z,3.97
2023-05-09T18:53:47.601Z,4.10
2023-05-09T18:56:17.293Z,3.90
2023-05-09T18:58:46.413Z,3.00
2023-05-09T19:01:15.372Z,3.60
2023-05-09T19:03:46.145Z,4.20
2023-05-09T19:06:16.588Z,4.60
2023-05-09T19:08:47.610Z,5.00
2023-05-09T19:11:16.691Z,4.37
2023-05-09T19:13:48.814Z,4.80
2023-05-09T19:16:21.532Z,4.73
2023-05-09T19:18:50.634Z,4.23
2023-05-09T19:21:19.784Z,4.93
2023-05-09T19:23:50.106Z,3.90
2023-05-09T19:26:19.919Z,2.87
2023-05-09T19:28:49.167Z,4.03
2023-05-09T19:31:18.866Z,4.00
2023-05-09T19:33:49.672Z,4.40
2023-05-09T19:36:18.943Z,3.90
2023-05-09T19:38:49.498Z,4.00
2023-05-09T19:41:18.557Z,3.13
2023-05-09T19:43:48.807Z,3.03
2023-05-09T19:46:19.329Z,4.20
2023-05-09T19:48:48.340Z,3.17
2023-05-09T19:51:17.308Z,3.97
2023-05-09T19:53:46.936Z,3.33
2023-05-09T19:56:17.391Z,4.23
2023-05-09T19:58:49.684Z,4.13
2023-05-09T20:01:19.368Z,3.90
2023-05-09T20:03:50.730Z,3.20
2023-05-09T20:06:20.009Z,3.73
2023-05-09T20:08:51.487Z,3.10
2023-05-09T20:11:22.517Z,3.43
2023-05-09T20:13:51.802Z,3.30
2023-05-09T20:16:21.307Z,3.57
2023-05-09T20:18:52.296Z,3.20
2023-05-09T20:21:21.350Z,3.57
2023-05-09T20:23:50.428Z,3.13
2023-05-09T20:26:23.883Z,3.70
2023-05-09T20:28:58.974Z,4.50
2023-05-09T20:31:28.195Z,3.37
2023-05-09T20:33:57.572Z,3.70
2023-05-09T20:36:28.111Z,3.80
2023-05-09T20:38:57.558Z,3.57
2023-05-09T20:41:28.037Z,3.17
2023-05-09T20:44:03.531Z,3.77
2023-05-09T20:46:33.023Z,3.57
2023-05-09T20:49:04.427Z,3.63
2023-05-09T20:51:33.512Z,3.10
2023-05-09T20:54:02.614Z,3.40
2023-05-09T20:56:33.815Z,3.70
2023-05-09T20:59:04.285Z,3.63
2023-05-09T21:01:36.889Z,3.50
2023-05-09T21:04:08.358Z,4.40
2023-05-09T21:06:37.454Z,3.13
2023-05-09T21:09:06.637Z,3.87
2023-05-09T21:11:38.494Z,3.60
2023-05-09T21:14:08.612Z,4.40
2023-05-09T21:16:37.705Z,3.70
2023-05-09T21:19:08.854Z,4.30
2023-05-09T21:21:38.117Z,4.03
2023-05-09T21:24:09.221Z,3.83
2023-05-09T21:26:39.796Z,3.63
2023-05-09T21:29:09.208Z,4.53
2023-05-09T21:31:38.339Z,4.67
2023-05-09T21:34:10.387Z,4.40
2023-05-09T21:36:39.414Z,4.07
2023-05-09T21:39:09.789Z,6.17
2023-05-09T21:41:43.025Z,5.00
2023-05-09T21:44:12.405Z,4.23
2023-05-09T21:46:43.523Z,4.20
2023-05-09T21:49:12.600Z,4.73
2023-05-09T21:51:41.649Z,4.53
2023-05-09T21:54:10.994Z,5.27
2023-05-09T21:56:42.650Z,3.87
2023-05-09T21:59:11.846Z,4.83
2023-05-09T22:01:42.544Z,4.10
2023-05-09T22:04:12.889Z,5.10
2023-05-09T22:06:42.608Z,5.40
2023-05-09T22:09:11.900Z,4.43
2023-05-09T22:11:42.411Z,5.63
2023-05-09T22:14:12.665Z,4.67
2023-05-09T22:16:41.786Z,5.03
2023-05-09T22:19:11.016Z,4.87
2023-05-09T22:21:40.035Z,5.03
2023-05-09T22:24:09.359Z,5.80
2023-05-09T22:26:39.365Z,4.60
2023-05-09T22:32:51.202Z,5.30
2023-05-09T22:35:30.239Z,5.97
2023-05-09T22:38:12.652Z,5.90
2023-05-09T22:41:06.502Z,6.27
2023-05-09T22:43:39.471Z,5.70
2023-05-09T22:46:14.252Z,6.60
2023-05-09T22:48:43.321Z,4.80
2023-05-09T22:51:12.678Z,5.43
2023-05-09T22:53:41.921Z,5.90
2023-05-09T22:56:11.580Z,6.70
2023-05-09T22:58:40.710Z,5.37
2023-05-09T23:01:10.714Z,5.57
2023-05-09T23:03:42.787Z,5.00
2023-05-09T23:06:12.121Z,5.43
2023-05-09T23:08:41.708Z,5.80
2023-05-09T23:11:10.708Z,5.43
2023-05-09T23:13:43.697Z,6.20
2023-05-09T23:16:16.270Z,5.60
2023-05-09T23:18:50.298Z,5.23
2023-05-09T23:21:27.577Z,6.10
2023-05-09T23:23:59.921Z,6.20
2023-05-09T23:26:29.196Z,6.73
2023-05-09T23:29:00.540Z,5.30
2023-05-09T23:31:29.812Z,6.03
2023-05-09T23:34:07.529Z,6.30
2023-05-09T23:36:37.144Z,5.63
2023-05-09T23:39:11.638Z,6.97
2023-05-09T23:42:32.682Z,6.37
2023-05-09T23:45:49.016Z,6.33
2023-05-09T23:52:40.369Z,6.17
2023-05-09T23:56:25.652Z,6.67
2023-05-09T23:59:25.671Z,6.63
